Bellefontaine, Mississippi
Current Conditions -  °F | °C
As of 1:15 PM on Thursday 30 Oct 2014 (Local Time) from KSTF Reporting Station
Clear Clear  
Wind Chill: 66°   Ceiling: Unl
Heat Index: 66°   Visibility: 10mi
Dew Point: 34°   Wind: 6mph
Humidity: 30%   Direction: 360°N
Pressure: 30.1"   Gusts: NA
Location:  33.65°N, 89.31°W
Report Text: KSTF 301815Z AUTO 36005KT 10SM CLR 19/01 A3010 RMK AO2
Loading
Personal Weather Stations






























Interactive Weather Map
Tropical Storm Tracking
New forecast layout! Learn more

10-Day Weather Forecast

Advertisements
Track Severe Weather on mobile